sensor_id;sensor_type;location;lat;lon;timestamp;P1;durP1;ratioP1;P2;durP2;ratioP2
19780;SDS011;10050;55.492;13.506;2023-05-03T00:02:14;1.97;;;1.87;;
19780;SDS011;10050;55.492;13.506;2023-05-03T00:04:40;2.10;;;2.00;;
19780;SDS011;10050;55.492;13.506;2023-05-03T00:07:06;2.50;;;2.30;;
19780;SDS011;10050;55.492;13.506;2023-05-03T00:09:32;2.60;;;2.33;;
19780;SDS011;10050;55.492;13.506;2023-05-03T00:11:59;2.53;;;2.33;;
19780;SDS011;10050;55.492;13.506;2023-05-03T00:14:26;2.93;;;2.63;;
19780;SDS011;10050;55.492;13.506;2023-05-03T00:16:51;3.97;;;2.60;;
19780;SDS011;10050;55.492;13.506;2023-05-03T00:19:17;2.80;;;2.47;;
19780;SDS011;10050;55.492;13.506;2023-05-03T00:21:44;2.90;;;2.67;;
19780;SDS011;10050;55.492;13.506;2023-05-03T00:24:10;5.17;;;2.70;;
19780;SDS011;10050;55.492;13.506;2023-05-03T00:26:36;5.07;;;2.70;;
19780;SDS011;10050;55.492;13.506;2023-05-03T00:29:01;3.17;;;2.80;;
19780;SDS011;10050;55.492;13.506;2023-05-03T00:31:27;4.20;;;2.97;;
19780;SDS011;10050;55.492;13.506;2023-05-03T00:33:53;5.97;;;3.00;;
19780;SDS011;10050;55.492;13.506;2023-05-03T00:36:18;5.03;;;2.60;;
19780;SDS011;10050;55.492;13.506;2023-05-03T00:38:44;4.90;;;2.30;;
19780;SDS011;10050;55.492;13.506;2023-05-03T00:41:11;5.83;;;2.30;;
19780;SDS011;10050;55.492;13.506;2023-05-03T00:43:37;4.17;;;2.60;;
19780;SDS011;10050;55.492;13.506;2023-05-03T00:46:03;7.03;;;3.03;;
19780;SDS011;10050;55.492;13.506;2023-05-03T00:48:30;5.23;;;2.73;;
19780;SDS011;10050;55.492;13.506;2023-05-03T00:50:58;4.90;;;2.40;;
19780;SDS011;10050;55.492;13.506;2023-05-03T00:53:26;3.33;;;2.43;;
19780;SDS011;10050;55.492;13.506;2023-05-03T00:55:53;6.13;;;2.87;;
19780;SDS011;10050;55.492;13.506;2023-05-03T00:58:20;4.50;;;2.50;;
19780;SDS011;10050;55.492;13.506;2023-05-03T01:00:46;8.13;;;2.63;;
19780;SDS011;10050;55.492;13.506;2023-05-03T01:03:12;6.03;;;2.57;;
19780;SDS011;10050;55.492;13.506;2023-05-03T01:05:50;6.63;;;2.13;;
19780;SDS011;10050;55.492;13.506;2023-05-03T01:15:12;4.53;;;2.50;;
19780;SDS011;10050;55.492;13.506;2023-05-03T01:17:47;4.77;;;2.13;;
19780;SDS011;10050;55.492;13.506;2023-05-03T01:20:16;3.93;;;2.57;;
19780;SDS011;10050;55.492;13.506;2023-05-03T01:25:29;5.20;;;1.93;;
19780;SDS011;10050;55.492;13.506;2023-05-03T01:27:55;4.90;;;2.60;;
19780;SDS011;10050;55.492;13.506;2023-05-03T01:30:21;3.37;;;2.20;;
19780;SDS011;10050;55.492;13.506;2023-05-03T01:38:03;4.67;;;2.40;;
19780;SDS011;10050;55.492;13.506;2023-05-03T01:40:29;3.77;;;2.10;;
19780;SDS011;10050;55.492;13.506;2023-05-03T01:42:58;3.83;;;2.10;;
19780;SDS011;10050;55.492;13.506;2023-05-03T01:45:26;5.27;;;2.30;;
19780;SDS011;10050;55.492;13.506;2023-05-03T01:47:52;3.83;;;2.17;;
19780;SDS011;10050;55.492;13.506;2023-05-03T01:50:17;4.70;;;2.17;;
19780;SDS011;10050;55.492;13.506;2023-05-03T01:52:43;2.47;;;2.17;;
19780;SDS011;10050;55.492;13.506;2023-05-03T01:55:09;4.73;;;2.57;;
19780;SDS011;10050;55.492;13.506;2023-05-03T01:57:35;4.83;;;2.33;;
19780;SDS011;10050;55.492;13.506;2023-05-03T02:00:00;7.30;;;2.50;;
19780;SDS011;10050;55.492;13.506;2023-05-03T02:02:26;7.43;;;2.07;;
19780;SDS011;10050;55.492;13.506;2023-05-03T02:04:52;4.57;;;1.77;;
19780;SDS011;10050;55.492;13.506;2023-05-03T02:07:17;3.80;;;2.13;;
19780;SDS011;10050;55.492;13.506;2023-05-03T02:09:43;4.47;;;2.40;;
19780;SDS011;10050;55.492;13.506;2023-05-03T02:12:08;5.47;;;1.70;;
19780;SDS011;10050;55.492;13.506;2023-05-03T02:14:35;4.43;;;2.00;;
19780;SDS011;10050;55.492;13.506;2023-05-03T02:17:01;3.07;;;2.00;;
19780;SDS011;10050;55.492;13.506;2023-05-03T02:19:27;10.50;;;2.63;;
19780;SDS011;10050;55.492;13.506;2023-05-03T02:21:53;6.50;;;2.20;;
19780;SDS011;10050;55.492;13.506;2023-05-03T02:24:18;5.50;;;1.83;;
19780;SDS011;10050;55.492;13.506;2023-05-03T02:26:44;2.40;;;1.73;;
19780;SDS011;10050;55.492;13.506;2023-05-03T02:29:10;6.60;;;2.50;;
19780;SDS011;10050;55.492;13.506;2023-05-03T02:31:35;4.37;;;1.90;;
19780;SDS011;10050;55.492;13.506;2023-05-03T02:34:01;4.50;;;2.13;;
19780;SDS011;10050;55.492;13.506;2023-05-03T02:36:27;7.83;;;2.40;;
19780;SDS011;10050;55.492;13.506;2023-05-03T02:38:52;7.03;;;2.47;;
19780;SDS011;10050;55.492;13.506;2023-05-03T02:41:18;8.77;;;2.50;;
19780;SDS011;10050;55.492;13.506;2023-05-03T02:43:45;4.87;;;2.10;;
19780;SDS011;10050;55.492;13.506;2023-05-03T02:46:10;4.07;;;1.80;;
19780;SDS011;10050;55.492;13.506;2023-05-03T02:48:36;5.07;;;2.37;;
19780;SDS011;10050;55.492;13.506;2023-05-03T02:51:02;4.63;;;1.70;;
19780;SDS011;10050;55.492;13.506;2023-05-03T02:53:27;4.13;;;1.90;;
19780;SDS011;10050;55.492;13.506;2023-05-03T02:55:53;3.80;;;1.87;;
19780;SDS011;10050;55.492;13.506;2023-05-03T02:58:19;4.23;;;1.80;;
19780;SDS011;10050;55.492;13.506;2023-05-03T03:00:44;7.77;;;2.13;;
19780;SDS011;10050;55.492;13.506;2023-05-03T03:03:13;6.37;;;2.13;;
19780;SDS011;10050;55.492;13.506;2023-05-03T03:05:38;7.87;;;2.53;;
19780;SDS011;10050;55.492;13.506;2023-05-03T03:08:04;3.43;;;1.83;;
19780;SDS011;10050;55.492;13.506;2023-05-03T03:10:29;8.33;;;1.97;;
19780;SDS011;10050;55.492;13.506;2023-05-03T03:12:55;10.63;;;2.13;;
19780;SDS011;10050;55.492;13.506;2023-05-03T03:15:21;4.67;;;1.93;;
19780;SDS011;10050;55.492;13.506;2023-05-03T03:17:46;4.67;;;2.53;;
19780;SDS011;10050;55.492;13.506;2023-05-03T03:20:12;5.07;;;2.40;;
19780;SDS011;10050;55.492;13.506;2023-05-03T03:22:38;7.40;;;2.00;;
19780;SDS011;10050;55.492;13.506;2023-05-03T03:25:04;5.00;;;2.37;;
19780;SDS011;10050;55.492;13.506;2023-05-03T03:27:31;5.27;;;2.00;;
19780;SDS011;10050;55.492;13.506;2023-05-03T03:29:57;8.23;;;2.33;;
19780;SDS011;10050;55.492;13.506;2023-05-03T03:32:23;8.47;;;2.93;;
19780;SDS011;10050;55.492;13.506;2023-05-03T03:34:49;3.50;;;2.10;;
19780;SDS011;10050;55.492;13.506;2023-05-03T03:37:15;8.03;;;2.77;;
19780;SDS011;10050;55.492;13.506;2023-05-03T03:39:41;6.50;;;2.37;;
19780;SDS011;10050;55.492;13.506;2023-05-03T03:42:07;6.40;;;2.17;;
19780;SDS011;10050;55.492;13.506;2023-05-03T03:44:37;9.60;;;2.93;;
19780;SDS011;10050;55.492;13.506;2023-05-03T03:47:03;5.13;;;2.10;;
19780;SDS011;10050;55.492;13.506;2023-05-03T03:49:29;7.83;;;2.70;;
19780;SDS011;10050;55.492;13.506;2023-05-03T03:51:54;5.90;;;2.63;;
19780;SDS011;10050;55.492;13.506;2023-05-03T03:54:20;5.57;;;2.60;;
19780;SDS011;10050;55.492;13.506;2023-05-03T03:56:45;4.80;;;2.67;;
19780;SDS011;10050;55.492;13.506;2023-05-03T03:59:11;3.77;;;2.20;;
19780;SDS011;10050;55.492;13.506;2023-05-03T04:01:37;10.00;;;2.80;;
19780;SDS011;10050;55.492;13.506;2023-05-03T04:04:03;5.50;;;2.60;;
19780;SDS011;10050;55.492;13.506;2023-05-03T04:06:29;4.43;;;2.43;;
19780;SDS011;10050;55.492;13.506;2023-05-03T04:08:55;8.13;;;2.77;;
19780;SDS011;10050;55.492;13.506;2023-05-03T04:11:20;7.83;;;2.50;;
19780;SDS011;10050;55.492;13.506;2023-05-03T04:13:46;8.70;;;3.50;;
19780;SDS011;10050;55.492;13.506;2023-05-03T04:16:12;4.97;;;2.40;;
19780;SDS011;10050;55.492;13.506;2023-05-03T04:18:37;7.03;;;2.53;;
19780;SDS011;10050;55.492;13.506;2023-05-03T04:21:03;10.40;;;2.87;;
19780;SDS011;10050;55.492;13.506;2023-05-03T04:23:29;5.67;;;2.57;;
19780;SDS011;10050;55.492;13.506;2023-05-03T04:25:55;4.43;;;2.87;;
19780;SDS011;10050;55.492;13.506;2023-05-03T04:28:21;9.83;;;3.53;;
19780;SDS011;10050;55.492;13.506;2023-05-03T04:30:49;8.43;;;3.00;;
19780;SDS011;10050;55.492;13.506;2023-05-03T04:33:15;8.60;;;2.87;;
19780;SDS011;10050;55.492;13.506;2023-05-03T04:35:41;12.00;;;2.83;;
19780;SDS011;10050;55.492;13.506;2023-05-03T04:38:07;9.47;;;2.50;;
19780;SDS011;10050;55.492;13.506;2023-05-03T04:40:33;9.33;;;2.87;;
19780;SDS011;10050;55.492;13.506;2023-05-03T04:42:59;9.33;;;3.27;;
19780;SDS011;10050;55.492;13.506;2023-05-03T04:45:25;9.83;;;3.10;;
19780;SDS011;10050;55.492;13.506;2023-05-03T04:47:51;8.67;;;3.53;;
19780;SDS011;10050;55.492;13.506;2023-05-03T04:50:16;7.83;;;2.93;;
19780;SDS011;10050;55.492;13.506;2023-05-03T04:52:43;7.07;;;2.80;;
19780;SDS011;10050;55.492;13.506;2023-05-03T04:55:09;9.00;;;2.83;;
19780;SDS011;10050;55.492;13.506;2023-05-03T04:57:34;10.77;;;2.50;;
19780;SDS011;10050;55.492;13.506;2023-05-03T05:00:00;11.10;;;3.03;;
19780;SDS011;10050;55.492;13.506;2023-05-03T05:02:26;7.93;;;3.00;;
19780;SDS011;10050;55.492;13.506;2023-05-03T05:04:52;8.93;;;2.67;;
19780;SDS011;10050;55.492;13.506;2023-05-03T05:07:18;9.10;;;2.80;;
19780;SDS011;10050;55.492;13.506;2023-05-03T05:09:43;10.17;;;3.00;;
19780;SDS011;10050;55.492;13.506;2023-05-03T05:12:10;5.20;;;2.93;;
19780;SDS011;10050;55.492;13.506;2023-05-03T05:14:35;6.97;;;3.03;;
19780;SDS011;10050;55.492;13.506;2023-05-03T05:17:01;8.73;;;2.80;;
19780;SDS011;10050;55.492;13.506;2023-05-03T05:19:27;9.80;;;2.93;;
19780;SDS011;10050;55.492;13.506;2023-05-03T05:21:53;8.13;;;2.53;;
19780;SDS011;10050;55.492;13.506;2023-05-03T05:24:20;9.47;;;3.00;;
19780;SDS011;10050;55.492;13.506;2023-05-03T05:26:45;7.67;;;2.80;;
19780;SDS011;10050;55.492;13.506;2023-05-03T05:29:11;10.70;;;3.30;;
19780;SDS011;10050;55.492;13.506;2023-05-03T05:31:37;12.53;;;3.23;;
19780;SDS011;10050;55.492;13.506;2023-05-03T05:34:03;6.33;;;3.07;;
19780;SDS011;10050;55.492;13.506;2023-05-03T05:36:29;7.43;;;2.70;;
19780;SDS011;10050;55.492;13.506;2023-05-03T05:38:55;10.67;;;3.27;;
19780;SDS011;10050;55.492;13.506;2023-05-03T05:41:21;9.23;;;3.03;;
19780;SDS011;10050;55.492;13.506;2023-05-03T05:43:46;8.37;;;3.23;;
19780;SDS011;10050;55.492;13.506;2023-05-03T05:46:12;8.90;;;3.73;;
19780;SDS011;10050;55.492;13.506;2023-05-03T05:48:38;7.80;;;2.77;;
19780;SDS011;10050;55.492;13.506;2023-05-03T05:51:05;5.77;;;2.57;;
19780;SDS011;10050;55.492;13.506;2023-05-03T05:53:31;9.27;;;3.17;;
19780;SDS011;10050;55.492;13.506;2023-05-03T05:55:57;10.30;;;3.07;;
19780;SDS011;10050;55.492;13.506;2023-05-03T05:58:22;7.20;;;3.20;;
19780;SDS011;10050;55.492;13.506;2023-05-03T06:00:48;9.27;;;3.43;;
19780;SDS011;10050;55.492;13.506;2023-05-03T06:03:14;12.77;;;3.43;;
19780;SDS011;10050;55.492;13.506;2023-05-03T06:05:40;7.73;;;3.30;;
19780;SDS011;10050;55.492;13.506;2023-05-03T06:08:06;4.30;;;2.77;;
19780;SDS011;10050;55.492;13.506;2023-05-03T06:10:32;13.00;;;2.53;;
19780;SDS011;10050;55.492;13.506;2023-05-03T06:12:58;8.37;;;2.57;;
19780;SDS011;10050;55.492;13.506;2023-05-03T06:15:24;5.87;;;2.50;;
19780;SDS011;10050;55.492;13.506;2023-05-03T06:17:50;11.10;;;3.20;;
19780;SDS011;10050;55.492;13.506;2023-05-03T06:20:16;10.17;;;2.80;;
19780;SDS011;10050;55.492;13.506;2023-05-03T06:22:42;9.90;;;2.87;;
19780;SDS011;10050;55.492;13.506;2023-05-03T06:25:08;6.47;;;2.30;;
19780;SDS011;10050;55.492;13.506;2023-05-03T06:27:34;11.13;;;2.77;;
19780;SDS011;10050;55.492;13.506;2023-05-03T06:30:02;9.20;;;2.57;;
19780;SDS011;10050;55.492;13.506;2023-05-03T06:32:28;12.27;;;3.17;;
19780;SDS011;10050;55.492;13.506;2023-05-03T06:34:53;7.47;;;2.80;;
19780;SDS011;10050;55.492;13.506;2023-05-03T06:37:19;11.93;;;3.00;;
19780;SDS011;10050;55.492;13.506;2023-05-03T06:39:47;11.17;;;2.43;;
19780;SDS011;10050;55.492;13.506;2023-05-03T06:42:14;6.77;;;2.50;;
19780;SDS011;10050;55.492;13.506;2023-05-03T06:44:40;4.93;;;2.60;;
19780;SDS011;10050;55.492;13.506;2023-05-03T06:47:07;10.10;;;2.83;;
19780;SDS011;10050;55.492;13.506;2023-05-03T06:49:32;6.30;;;2.13;;
19780;SDS011;10050;55.492;13.506;2023-05-03T06:51:58;9.20;;;2.50;;
19780;SDS011;10050;55.492;13.506;2023-05-03T06:54:24;9.67;;;2.40;;
19780;SDS011;10050;55.492;13.506;2023-05-03T06:56:49;6.93;;;2.50;;
19780;SDS011;10050;55.492;13.506;2023-05-03T06:59:15;8.30;;;2.37;;
19780;SDS011;10050;55.492;13.506;2023-05-03T07:01:41;6.53;;;2.27;;
19780;SDS011;10050;55.492;13.506;2023-05-03T07:04:07;5.90;;;1.97;;
19780;SDS011;10050;55.492;13.506;2023-05-03T07:06:32;6.80;;;2.30;;
19780;SDS011;10050;55.492;13.506;2023-05-03T07:08:58;10.93;;;2.90;;
19780;SDS011;10050;55.492;13.506;2023-05-03T07:11:23;7.37;;;2.20;;
19780;SDS011;10050;55.492;13.506;2023-05-03T07:13:50;9.17;;;2.83;;
19780;SDS011;10050;55.492;13.506;2023-05-03T07:16:16;7.33;;;2.10;;
19780;SDS011;10050;55.492;13.506;2023-05-03T07:18:42;6.10;;;2.00;;
19780;SDS011;10050;55.492;13.506;2023-05-03T07:21:08;7.30;;;2.10;;
19780;SDS011;10050;55.492;13.506;2023-05-03T07:23:34;5.03;;;2.40;;
19780;SDS011;10050;55.492;13.506;2023-05-03T07:26:00;4.97;;;2.17;;
19780;SDS011;10050;55.492;13.506;2023-05-03T07:28:26;7.37;;;2.23;;
19780;SDS011;10050;55.492;13.506;2023-05-03T07:30:51;8.07;;;2.20;;
19780;SDS011;10050;55.492;13.506;2023-05-03T07:33:17;5.50;;;2.30;;
19780;SDS011;10050;55.492;13.506;2023-05-03T07:35:46;6.70;;;2.27;;
19780;SDS011;10050;55.492;13.506;2023-05-03T07:38:13;8.47;;;2.53;;
19780;SDS011;10050;55.492;13.506;2023-05-03T07:40:39;8.03;;;2.40;;
19780;SDS011;10050;55.492;13.506;2023-05-03T07:43:05;9.47;;;2.57;;
19780;SDS011;10050;55.492;13.506;2023-05-03T07:45:32;8.07;;;2.67;;
19780;SDS011;10050;55.492;13.506;2023-05-03T07:47:58;6.87;;;2.63;;
19780;SDS011;10050;55.492;13.506;2023-05-03T07:50:24;10.23;;;2.80;;
19780;SDS011;10050;55.492;13.506;2023-05-03T07:52:49;7.47;;;2.40;;
19780;SDS011;10050;55.492;13.506;2023-05-03T07:55:18;7.97;;;2.13;;
19780;SDS011;10050;55.492;13.506;2023-05-03T07:57:44;9.63;;;2.60;;
19780;SDS011;10050;55.492;13.506;2023-05-03T08:00:11;7.47;;;2.30;;
19780;SDS011;10050;55.492;13.506;2023-05-03T08:02:37;4.73;;;2.13;;
19780;SDS011;10050;55.492;13.506;2023-05-03T08:05:03;4.47;;;2.33;;
19780;SDS011;10050;55.492;13.506;2023-05-03T08:07:30;8.53;;;2.07;;
19780;SDS011;10050;55.492;13.506;2023-05-03T08:09:56;6.20;;;2.30;;
19780;SDS011;10050;55.492;13.506;2023-05-03T08:12:25;5.47;;;2.00;;
19780;SDS011;10050;55.492;13.506;2023-05-03T08:14:51;5.30;;;2.03;;
19780;SDS011;10050;55.492;13.506;2023-05-03T08:17:18;5.07;;;2.07;;
19780;SDS011;10050;55.492;13.506;2023-05-03T08:19:45;4.37;;;2.07;;
19780;SDS011;10050;55.492;13.506;2023-05-03T08:22:11;4.23;;;2.23;;
19780;SDS011;10050;55.492;13.506;2023-05-03T08:24:37;5.37;;;2.27;;
19780;SDS011;10050;55.492;13.506;2023-05-03T08:27:03;5.60;;;1.93;;
19780;SDS011;10050;55.492;13.506;2023-05-03T08:29:30;5.47;;;1.63;;
19780;SDS011;10050;55.492;13.506;2023-05-03T08:31:56;5.33;;;2.30;;
19780;SDS011;10050;55.492;13.506;2023-05-03T08:34:22;6.10;;;2.07;;
19780;SDS011;10050;55.492;13.506;2023-05-03T08:36:48;9.30;;;1.97;;
19780;SDS011;10050;55.492;13.506;2023-05-03T08:39:15;4.90;;;2.10;;
19780;SDS011;10050;55.492;13.506;2023-05-03T08:41:41;5.30;;;2.20;;
19780;SDS011;10050;55.492;13.506;2023-05-03T08:44:07;4.77;;;1.80;;
19780;SDS011;10050;55.492;13.506;2023-05-03T08:46:36;5.30;;;2.10;;
19780;SDS011;10050;55.492;13.506;2023-05-03T08:49:03;7.37;;;2.10;;
19780;SDS011;10050;55.492;13.506;2023-05-03T08:51:30;6.37;;;2.07;;
19780;SDS011;10050;55.492;13.506;2023-05-03T08:53:59;5.27;;;1.70;;
19780;SDS011;10050;55.492;13.506;2023-05-03T08:56:28;4.67;;;1.93;;
19780;SDS011;10050;55.492;13.506;2023-05-03T08:58:58;4.40;;;1.87;;
19780;SDS011;10050;55.492;13.506;2023-05-03T09:01:31;6.33;;;2.10;;
19780;SDS011;10050;55.492;13.506;2023-05-03T09:03:57;4.67;;;1.87;;
19780;SDS011;10050;55.492;13.506;2023-05-03T09:06:23;4.03;;;1.87;;
19780;SDS011;10050;55.492;13.506;2023-05-03T09:08:52;5.20;;;2.07;;
19780;SDS011;10050;55.492;13.506;2023-05-03T09:11:28;7.67;;;2.33;;
19780;SDS011;10050;55.492;13.506;2023-05-03T09:16:38;3.63;;;1.97;;
19780;SDS011;10050;55.492;13.506;2023-05-03T09:19:05;5.27;;;2.13;;
19780;SDS011;10050;55.492;13.506;2023-05-03T09:21:33;7.03;;;2.03;;
19780;SDS011;10050;55.492;13.506;2023-05-03T09:24:00;7.90;;;2.07;;
19780;SDS011;10050;55.492;13.506;2023-05-03T09:26:29;5.63;;;1.93;;
19780;SDS011;10050;55.492;13.506;2023-05-03T09:28:56;5.67;;;2.17;;
19780;SDS011;10050;55.492;13.506;2023-05-03T09:31:23;5.93;;;2.20;;
19780;SDS011;10050;55.492;13.506;2023-05-03T09:33:49;7.33;;;2.17;;
19780;SDS011;10050;55.492;13.506;2023-05-03T09:36:15;4.33;;;2.10;;
19780;SDS011;10050;55.492;13.506;2023-05-03T09:38:41;4.97;;;1.87;;
19780;SDS011;10050;55.492;13.506;2023-05-03T09:41:07;4.03;;;1.87;;
19780;SDS011;10050;55.492;13.506;2023-05-03T09:43:33;7.13;;;2.03;;
19780;SDS011;10050;55.492;13.506;2023-05-03T09:46:12;7.00;;;2.13;;
19780;SDS011;10050;55.492;13.506;2023-05-03T09:48:38;5.33;;;1.90;;
19780;SDS011;10050;55.492;13.506;2023-05-03T09:51:05;5.63;;;2.00;;
19780;SDS011;10050;55.492;13.506;2023-05-03T09:53:32;6.00;;;1.70;;
19780;SDS011;10050;55.492;13.506;2023-05-03T09:55:59;3.77;;;1.67;;
19780;SDS011;10050;55.492;13.506;2023-05-03T09:58:27;4.47;;;1.73;;
19780;SDS011;10050;55.492;13.506;2023-05-03T10:00:55;6.87;;;2.03;;
19780;SDS011;10050;55.492;13.506;2023-05-03T10:03:22;4.73;;;1.67;;
19780;SDS011;10050;55.492;13.506;2023-05-03T10:05:52;3.53;;;1.80;;
19780;SDS011;10050;55.492;13.506;2023-05-03T10:11:00;3.27;;;1.70;;
19780;SDS011;10050;55.492;13.506;2023-05-03T10:13:28;5.93;;;1.80;;
19780;SDS011;10050;55.492;13.506;2023-05-03T10:16:02;3.30;;;1.30;;
19780;SDS011;10050;55.492;13.506;2023-05-03T10:18:31;4.67;;;1.67;;
19780;SDS011;10050;55.492;13.506;2023-05-03T10:21:03;4.97;;;2.00;;
19780;SDS011;10050;55.492;13.506;2023-05-03T10:26:40;5.30;;;1.77;;
19780;SDS011;10050;55.492;13.506;2023-05-03T10:32:02;5.20;;;2.00;;
19780;SDS011;10050;55.492;13.506;2023-05-03T10:34:33;3.77;;;1.40;;
19780;SDS011;10050;55.492;13.506;2023-05-03T10:37:00;6.57;;;1.73;;
19780;SDS011;10050;55.492;13.506;2023-05-03T10:39:27;3.33;;;1.93;;
19780;SDS011;10050;55.492;13.506;2023-05-03T10:42:03;5.40;;;1.60;;
19780;SDS011;10050;55.492;13.506;2023-05-03T10:44:40;4.20;;;1.63;;
19780;SDS011;10050;55.492;13.506;2023-05-03T10:47:15;6.63;;;1.97;;
19780;SDS011;10050;55.492;13.506;2023-05-03T10:49:41;4.07;;;1.50;;
19780;SDS011;10050;55.492;13.506;2023-05-03T10:55:10;4.70;;;2.00;;
19780;SDS011;10050;55.492;13.506;2023-05-03T10:57:39;5.37;;;2.07;;
19780;SDS011;10050;55.492;13.506;2023-05-03T11:00:13;6.53;;;1.97;;
19780;SDS011;10050;55.492;13.506;2023-05-03T11:05:39;5.63;;;1.90;;
19780;SDS011;10050;55.492;13.506;2023-05-03T11:08:11;4.63;;;1.47;;
19780;SDS011;10050;55.492;13.506;2023-05-03T11:10:42;4.90;;;1.73;;
19780;SDS011;10050;55.492;13.506;2023-05-03T11:13:09;3.53;;;1.70;;
19780;SDS011;10050;55.492;13.506;2023-05-03T11:15:35;3.80;;;1.73;;
19780;SDS011;10050;55.492;13.506;2023-05-03T11:18:01;6.03;;;1.70;;
19780;SDS011;10050;55.492;13.506;2023-05-03T11:20:27;2.77;;;1.70;;
19780;SDS011;10050;55.492;13.506;2023-05-03T11:22:53;3.10;;;1.20;;
19780;SDS011;10050;55.492;13.506;2023-05-03T11:25:20;4.07;;;1.97;;
19780;SDS011;10050;55.492;13.506;2023-05-03T11:27:46;4.67;;;1.50;;
19780;SDS011;10050;55.492;13.506;2023-05-03T11:30:12;4.83;;;1.73;;
19780;SDS011;10050;55.492;13.506;2023-05-03T11:32:38;3.40;;;1.37;;
19780;SDS011;10050;55.492;13.506;2023-05-03T11:35:05;5.23;;;1.93;;
19780;SDS011;10050;55.492;13.506;2023-05-03T11:37:32;6.37;;;1.60;;
19780;SDS011;10050;55.492;13.506;2023-05-03T11:39:58;4.13;;;1.47;;
19780;SDS011;10050;55.492;13.506;2023-05-03T11:42:24;3.67;;;1.37;;
19780;SDS011;10050;55.492;13.506;2023-05-03T11:44:53;4.33;;;2.13;;
19780;SDS011;10050;55.492;13.506;2023-05-03T11:47:19;5.50;;;1.70;;
19780;SDS011;10050;55.492;13.506;2023-05-03T11:49:53;3.03;;;1.97;;
19780;SDS011;10050;55.492;13.506;2023-05-03T11:52:24;3.63;;;1.80;;
19780;SDS011;10050;55.492;13.506;2023-05-03T11:54:51;4.63;;;1.90;;
19780;SDS011;10050;55.492;13.506;2023-05-03T11:57:17;4.27;;;1.87;;
19780;SDS011;10050;55.492;13.506;2023-05-03T11:59:44;5.67;;;2.10;;
19780;SDS011;10050;55.492;13.506;2023-05-03T12:02:11;6.90;;;2.17;;
19780;SDS011;10050;55.492;13.506;2023-05-03T12:04:38;7.63;;;1.57;;
19780;SDS011;10050;55.492;13.506;2023-05-03T12:07:08;4.37;;;2.07;;
19780;SDS011;10050;55.492;13.506;2023-05-03T12:09:35;11.23;;;2.30;;
19780;SDS011;10050;55.492;13.506;2023-05-03T12:12:01;8.07;;;2.20;;
19780;SDS011;10050;55.492;13.506;2023-05-03T12:14:46;4.60;;;2.40;;
19780;SDS011;10050;55.492;13.506;2023-05-03T12:17:36;8.33;;;2.63;;
19780;SDS011;10050;55.492;13.506;2023-05-03T12:22:42;6.47;;;2.13;;
19780;SDS011;10050;55.492;13.506;2023-05-03T12:25:08;7.10;;;2.70;;
19780;SDS011;10050;55.492;13.506;2023-05-03T12:27:33;5.03;;;2.07;;
19780;SDS011;10050;55.492;13.506;2023-05-03T12:29:59;5.77;;;2.10;;
19780;SDS011;10050;55.492;13.506;2023-05-03T12:32:25;5.77;;;2.53;;
19780;SDS011;10050;55.492;13.506;2023-05-03T12:34:54;6.97;;;1.97;;
19780;SDS011;10050;55.492;13.506;2023-05-03T12:37:20;6.10;;;1.90;;
19780;SDS011;10050;55.492;13.506;2023-05-03T12:39:46;6.70;;;2.27;;
19780;SDS011;10050;55.492;13.506;2023-05-03T12:42:11;9.80;;;2.13;;
19780;SDS011;10050;55.492;13.506;2023-05-03T12:44:40;5.93;;;2.30;;
19780;SDS011;10050;55.492;13.506;2023-05-03T12:47:06;5.57;;;2.10;;
19780;SDS011;10050;55.492;13.506;2023-05-03T12:49:32;4.00;;;2.17;;
19780;SDS011;10050;55.492;13.506;2023-05-03T12:51:58;7.47;;;2.27;;
19780;SDS011;10050;55.492;13.506;2023-05-03T12:54:26;5.73;;;1.93;;
19780;SDS011;10050;55.492;13.506;2023-05-03T12:56:52;8.67;;;2.60;;
19780;SDS011;10050;55.492;13.506;2023-05-03T12:59:18;5.47;;;2.27;;
19780;SDS011;10050;55.492;13.506;2023-05-03T13:01:44;9.63;;;2.30;;
19780;SDS011;10050;55.492;13.506;2023-05-03T13:04:12;7.37;;;2.43;;
19780;SDS011;10050;55.492;13.506;2023-05-03T13:06:38;7.37;;;2.30;;
19780;SDS011;10050;55.492;13.506;2023-05-03T13:09:05;4.93;;;1.80;;
19780;SDS011;10050;55.492;13.506;2023-05-03T13:11:31;6.30;;;1.87;;
19780;SDS011;10050;55.492;13.506;2023-05-03T13:13:58;5.80;;;2.07;;
19780;SDS011;10050;55.492;13.506;2023-05-03T13:16:24;4.93;;;2.40;;
19780;SDS011;10050;55.492;13.506;2023-05-03T13:18:49;5.00;;;2.03;;
19780;SDS011;10050;55.492;13.506;2023-05-03T13:21:19;4.40;;;1.90;;
19780;SDS011;10050;55.492;13.506;2023-05-03T13:23:47;4.93;;;1.70;;
19780;SDS011;10050;55.492;13.506;2023-05-03T13:26:13;3.73;;;1.93;;
19780;SDS011;10050;55.492;13.506;2023-05-03T13:28:39;5.83;;;1.93;;
19780;SDS011;10050;55.492;13.506;2023-05-03T13:31:05;7.93;;;2.07;;
19780;SDS011;10050;55.492;13.506;2023-05-03T13:33:31;4.80;;;1.90;;
19780;SDS011;10050;55.492;13.506;2023-05-03T13:35:57;6.77;;;1.90;;
19780;SDS011;10050;55.492;13.506;2023-05-03T13:38:22;4.87;;;1.97;;
19780;SDS011;10050;55.492;13.506;2023-05-03T13:40:50;5.83;;;1.73;;
19780;SDS011;10050;55.492;13.506;2023-05-03T13:43:16;7.03;;;1.87;;
19780;SDS011;10050;55.492;13.506;2023-05-03T13:45:42;6.70;;;1.97;;
19780;SDS011;10050;55.492;13.506;2023-05-03T13:48:07;7.70;;;2.40;;
19780;SDS011;10050;55.492;13.506;2023-05-03T13:50:33;6.13;;;1.97;;
19780;SDS011;10050;55.492;13.506;2023-05-03T13:52:58;4.40;;;1.80;;
19780;SDS011;10050;55.492;13.506;2023-05-03T13:55:24;7.77;;;1.70;;
19780;SDS011;10050;55.492;13.506;2023-05-03T13:57:50;4.87;;;2.10;;
19780;SDS011;10050;55.492;13.506;2023-05-03T14:00:16;6.40;;;2.10;;
19780;SDS011;10050;55.492;13.506;2023-05-03T14:02:44;4.97;;;1.97;;
19780;SDS011;10050;55.492;13.506;2023-05-03T14:05:11;4.20;;;1.87;;
19780;SDS011;10050;55.492;13.506;2023-05-03T14:07:38;4.50;;;1.70;;
19780;SDS011;10050;55.492;13.506;2023-05-03T14:10:04;4.43;;;1.80;;
19780;SDS011;10050;55.492;13.506;2023-05-03T14:12:32;4.47;;;1.47;;
19780;SDS011;10050;55.492;13.506;2023-05-03T14:15:04;6.47;;;2.07;;
19780;SDS011;10050;55.492;13.506;2023-05-03T14:17:31;4.97;;;1.70;;
19780;SDS011;10050;55.492;13.506;2023-05-03T14:19:57;5.20;;;2.07;;
19780;SDS011;10050;55.492;13.506;2023-05-03T14:22:23;3.97;;;1.60;;
19780;SDS011;10050;55.492;13.506;2023-05-03T14:24:50;7.00;;;2.13;;
19780;SDS011;10050;55.492;13.506;2023-05-03T14:27:16;5.67;;;2.20;;
19780;SDS011;10050;55.492;13.506;2023-05-03T14:29:45;10.83;;;1.93;;
19780;SDS011;10050;55.492;13.506;2023-05-03T14:32:12;7.00;;;2.30;;
19780;SDS011;10050;55.492;13.506;2023-05-03T14:34:37;5.40;;;2.27;;
19780;SDS011;10050;55.492;13.506;2023-05-03T14:37:03;3.40;;;1.93;;
19780;SDS011;10050;55.492;13.506;2023-05-03T14:39:30;5.07;;;1.73;;
19780;SDS011;10050;55.492;13.506;2023-05-03T14:41:56;6.77;;;1.87;;
19780;SDS011;10050;55.492;13.506;2023-05-03T14:44:21;4.80;;;2.10;;
19780;SDS011;10050;55.492;13.506;2023-05-03T14:46:47;4.57;;;2.03;;
19780;SDS011;10050;55.492;13.506;2023-05-03T14:49:17;3.97;;;1.83;;
19780;SDS011;10050;55.492;13.506;2023-05-03T14:51:46;5.17;;;2.23;;
19780;SDS011;10050;55.492;13.506;2023-05-03T14:54:12;4.73;;;2.27;;
19780;SDS011;10050;55.492;13.506;2023-05-03T14:56:38;6.27;;;1.60;;
19780;SDS011;10050;55.492;13.506;2023-05-03T14:59:05;6.40;;;1.97;;
19780;SDS011;10050;55.492;13.506;2023-05-03T15:01:31;4.43;;;1.87;;
19780;SDS011;10050;55.492;13.506;2023-05-03T15:03:57;4.33;;;2.03;;
19780;SDS011;10050;55.492;13.506;2023-05-03T15:06:27;4.90;;;1.30;;